^^
Your Local Weather - Clay, NY Station Historical Data
Daily Summary for October 17, 2017 Units:  English    Metric   Both
« Previous Day
Next Day »
Daily Weekly Monthly Yearly Custom
  High: Low: Average:
Temperature: 61.5 °F 31.3 °F 46.3 °F
Dew Point: 41.9 °F 29.5 °F 35.7 °F
Humidity: 94% 37% 70%
Wind Speed: 6.0mph 0.0mph 1.5mph
Wind Gust: 12.0mph - -
Wind- - SSW
Pressure: 30.28 in 30.09 in -
Precipitation: 0.00 in    
Historical Graphs
 
 
Tabular Data for October 17, 2017
Time Temperature Dew Point Pressure Wind Wind Speed Wind Gust Humidity Rainfall Rate (Hourly) solar
00:04 38.5 °F 35.3 °F 30.23 in Calm     88% 0.00 in 0 W/m2
00:10 38.3 °F 35.1 °F 30.23 in Calm     88% 0.00 in 0 W/m2
00:16 38.0 °F 34.8 °F 30.23 in Calm     88% 0.00 in 0 W/m2
00:22 37.7 °F 34.8 °F 30.24 in Calm     89% 0.00 in 0 W/m2
00:28 37.5 °F 34.6 °F 30.23 in Calm     89% 0.00 in 0 W/m2
00:34 37.3 °F 34.4 °F 30.23 in Calm     89% 0.00 in 0 W/m2
00:40 37.2 °F 34.3 °F 30.23 in Calm     89% 0.00 in 0 W/m2
00:46 37.1 °F 34.4 °F 30.23 in Calm     90% 0.00 in 0 W/m2
00:52 36.7 °F 34.0 °F 30.23 in Calm     90% 0.00 in 0 W/m2
00:58 36.4 °F 33.7 °F 30.23 in Calm     90% 0.00 in 0 W/m2
01:04 36.3 °F 33.6 °F 30.23 in Calm     90% 0.00 in 0 W/m2
01:10 36.0 °F 33.4 °F 30.24 in Calm     90% 0.00 in 0 W/m2
01:16 35.8 °F 33.2 °F 30.24 in Calm     90% 0.00 in 0 W/m2
01:22 35.7 °F 33.1 °F 30.24 in Calm     90% 0.00 in 0 W/m2
01:28 35.6 °F 33.0 °F 30.24 in Calm     90% 0.00 in 0 W/m2
01:34 35.4 °F 33.0 °F 30.24 in Calm     91% 0.00 in 0 W/m2
01:40 35.1 °F 32.5 °F 30.25 in Calm     90% 0.00 in 0 W/m2
01:46 34.9 °F 32.5 °F 30.25 in Calm     91% 0.00 in 0 W/m2
01:52 34.9 °F 32.5 °F 30.25 in Calm     91% 0.00 in 0 W/m2
01:58 34.7 °F 32.3 °F 30.25 in Calm     91% 0.00 in 0 W/m2
02:04 34.6 °F 32.2 °F 30.25 in Calm     91% 0.00 in 0 W/m2
02:10 34.4 °F 32.0 °F 30.25 in Calm     91% 0.00 in 0 W/m2
02:16 34.3 °F 31.9 °F 30.25 in Calm     91% 0.00 in 0 W/m2
02:22 34.3 °F 31.9 °F 30.25 in Calm     91% 0.00 in 0 W/m2
02:28 34.1 °F 31.7 °F 30.25 in Calm     91% 0.00 in 0 W/m2
02:34 33.9 °F 31.6 °F 30.25 in Calm     91% 0.00 in 0 W/m2
02:40 33.8 °F 31.5 °F 30.25 in Calm     91% 0.00 in 0 W/m2
02:46 33.6 °F 31.3 °F 30.25 in Calm     91% 0.00 in 0 W/m2
02:52 33.4 °F 31.1 °F 30.25 in Calm     91% 0.00 in 0 W/m2
02:58 33.3 °F 31.0 °F 30.25 in Calm     91% 0.00 in 0 W/m2
03:04 33.3 °F 31.2 °F 30.25 in Calm     92% 0.00 in 0 W/m2
03:10 33.4 °F 31.3 °F 30.25 in Calm     92% 0.00 in 0 W/m2
03:16 33.2 °F 31.1 °F 30.26 in Calm     92% 0.00 in 0 W/m2
03:22 33.0 °F 30.9 °F 30.26 in Calm     92% 0.00 in 0 W/m2
03:28 33.0 °F 30.9 °F 30.26 in Calm     92% 0.00 in 0 W/m2
03:34 32.9 °F 30.8 °F 30.26 in Calm     92% 0.00 in 0 W/m2
03:40 32.9 °F 30.8 °F 30.26 in Calm     92% 0.00 in 0 W/m2
03:46 32.8 °F 30.7 °F 30.26 in Calm     92% 0.00 in 0 W/m2
03:52 32.6 °F 30.5 °F 30.26 in Calm     92% 0.00 in 0 W/m2
03:58 32.4 °F 30.3 °F 30.26 in Calm     92% 0.00 in 0 W/m2
04:04 32.2 °F 30.1 °F 30.26 in Calm     92% 0.00 in 0 W/m2
04:10 31.9 °F 29.8 °F 30.26 in Calm     92% 0.00 in 0 W/m2
04:16 31.9 °F 29.8 °F 30.26 in Calm     92% 0.00 in 0 W/m2
04:22 31.9 °F 29.8 °F 30.26 in Calm     92% 0.00 in 0 W/m2
04:28 31.8 °F 29.7 °F 30.26 in Calm     92% 0.00 in 0 W/m2
04:34 31.9 °F 29.8 °F 30.26 in Calm     92% 0.00 in 0 W/m2
04:40 32.0 °F 29.9 °F 30.26 in Calm     92% 0.00 in 0 W/m2
04:46 32.0 °F 29.9 °F 30.27 in Calm     92% 0.00 in 0 W/m2
04:52 32.1 °F 30.0 °F 30.27 in Calm     92% 0.00 in 0 W/m2
04:58 32.1 °F 30.0 °F 30.27 in Calm     92% 0.00 in 0 W/m2
05:04 32.2 °F 30.1 °F 30.27 in Calm   2.0 mph 92% 0.00 in 0 W/m2
05:10 32.3 °F 30.2 °F 30.27 in Calm     92% 0.00 in 0 W/m2
05:16 32.6 °F 30.8 °F 30.27 in Calm     93% 0.00 in 0 W/m2
05:22 32.6 °F 30.8 °F 30.27 in Calm     93% 0.00 in 0 W/m2
05:28 32.5 °F 30.7 °F 30.28 in Calm     93% 0.00 in 0 W/m2
05:40 32.1 °F 30.3 °F 30.28 in Calm     93% 0.00 in 0 W/m2
05:46 32.1 °F 30.3 °F 30.28 in Calm     93% 0.00 in 0 W/m2
05:52 32.0 °F 30.2 °F 30.28 in Calm     93% 0.00 in 0 W/m2
05:58 31.9 °F 30.1 °F 30.28 in Calm     93% 0.00 in 0 W/m2
06:04 31.9 °F 30.1 °F 30.28 in Calm     93% 0.00 in 0 W/m2
06:10 31.9 °F 30.1 °F 30.28 in Calm     93% 0.00 in 0 W/m2
06:16 32.0 °F 30.2 °F 30.28 in Calm     93% 0.00 in 0 W/m2
06:22 32.1 °F 30.3 °F 30.28 in Calm     93% 0.00 in 0 W/m2
06:28 31.9 °F 30.1 °F 30.28 in Calm     93% 0.00 in 0 W/m2
06:34 31.7 °F 29.9 °F 30.28 in Calm     93% 0.00 in 0 W/m2
06:40 31.5 °F 29.7 °F 30.28 in Calm     93% 0.00 in 0 W/m2
06:46 31.5 °F 29.7 °F 30.28 in Calm     93% 0.00 in 0 W/m2
06:52 31.4 °F 29.6 °F 30.28 in Calm     93% 0.00 in 0 W/m2
06:58 31.3 °F 29.5 °F 30.28 in Calm     93% 0.00 in 0 W/m2
07:04 31.6 °F 29.8 °F 30.28 in Calm     93% 0.00 in 0 W/m2
07:10 31.7 °F 29.9 °F 30.28 in Calm     93% 0.00 in 0 W/m2
07:16 31.6 °F 29.8 °F 30.28 in Calm     93% 0.00 in 0 W/m2
07:22 31.4 °F 29.6 °F 30.28 in Calm     93% 0.00 in 5 W/m2
07:28 31.3 °F 29.5 °F 30.28 in Calm     93% 0.00 in 7 W/m2
07:34 31.3 °F 29.5 °F 30.28 in Calm     93% 0.00 in 9 W/m2
07:40 31.4 °F 29.6 °F 30.28 in Calm     93% 0.00 in 11 W/m2
07:46 31.6 °F 29.8 °F 30.28 in Calm     93% 0.00 in 12 W/m2
07:52 31.9 °F 30.1 °F 30.28 in Calm     93% 0.00 in 16 W/m2
07:58 32.3 °F 30.5 °F 30.28 in Calm     93% 0.00 in 19 W/m2
08:04 32.8 °F 31.0 °F 30.28 in Calm     93% 0.00 in 23 W/m2
08:10 33.1 °F 31.3 °F 30.28 in Calm     93% 0.00 in 25 W/m2
08:16 33.2 °F 31.4 °F 30.28 in Calm     93% 0.00 in 28 W/m2
08:22 33.6 °F 32.1 °F 30.28 in Calm     94% 0.00 in 32 W/m2
08:28 34.3 °F 32.8 °F 30.28 in Calm   1.0 mph 94% 0.00 in 76 W/m2
08:34 35.0 °F 33.4 °F 30.28 in NE 1.0 mph 3.0 mph 94% 0.00 in 97 W/m2
08:40 35.7 °F 34.1 °F 30.28 in ESE 1.0 mph 3.0 mph 94% 0.00 in 109 W/m2
08:46 36.5 °F 34.9 °F 30.28 in ESE 2.0 mph 4.0 mph 94% 0.00 in 142 W/m2
08:52 37.1 °F 35.5 °F 30.28 in SE 2.0 mph 5.0 mph 94% 0.00 in 95 W/m2
08:58 37.9 °F 36.3 °F 30.28 in SSE 2.0 mph 5.0 mph 94% 0.00 in 204 W/m2
09:04 38.4 °F 36.6 °F 30.28 in SE 2.0 mph 2.0 mph 93% 0.00 in 225 W/m2
09:10 39.3 °F 37.4 °F 30.28 in SE 2.0 mph 2.0 mph 93% 0.00 in 276 W/m2
09:16 40.0 °F 37.3 °F 30.28 in SSE 2.0 mph 3.0 mph 90% 0.00 in 165 W/m2
09:22 41.0 °F 37.4 °F 30.28 in SSE 2.0 mph 4.0 mph 87% 0.00 in 206 W/m2
09:28 41.6 °F 37.4 °F 30.28 in SSE 2.0 mph 4.0 mph 85% 0.00 in 123 W/m2
09:34 42.4 °F 37.9 °F 30.28 in SSE 2.0 mph 2.0 mph 84% 0.00 in 346 W/m2
09:40 43.1 °F 38.3 °F 30.28 in SE 2.0 mph 4.0 mph 83% 0.00 in 367 W/m2
09:46 43.9 °F 37.8 °F 30.28 in SSW 2.0 mph 5.0 mph 79% 0.00 in 380 W/m2
09:52 44.9 °F 38.1 °F 30.28 in SSE 3.0 mph 3.0 mph 77% 0.00 in 403 W/m2
09:58 45.4 °F 38.6 °F 30.28 in SSE 2.0 mph 3.0 mph 77% 0.00 in 424 W/m2
10:04 46.2 °F 38.0 °F 30.28 in SE 2.0 mph 4.0 mph 73% 0.00 in 439 W/m2
10:10 46.9 °F 37.6 °F 30.27 in SE 3.0 mph 3.0 mph 70% 0.00 in 457 W/m2
10:16 47.6 °F 37.9 °F 30.27 in SSE 3.0 mph 4.0 mph 69% 0.00 in 476 W/m2
10:22 48.4 °F 37.9 °F 30.27 in SSE 2.0 mph 2.0 mph 67% 0.00 in 497 W/m2
10:28 48.9 °F 37.3 °F 30.27 in SSW 2.0 mph 3.0 mph 64% 0.00 in 506 W/m2
10:34 49.3 °F 36.8 °F 30.27 in SW 2.0 mph 4.0 mph 62% 0.00 in 513 W/m2
10:40 49.3 °F 37.2 °F 30.27 in SSW 2.0 mph 5.0 mph 63% 0.00 in 436 W/m2
10:46 49.5 °F 36.6 °F 30.26 in SSE 3.0 mph 5.0 mph 61% 0.00 in 503 W/m2
10:52 49.7 °F 35.9 °F 30.26 in SW 3.0 mph 5.0 mph 59% 0.00 in 543 W/m2
10:58 50.2 °F 36.4 °F 30.26 in SSW 3.0 mph 5.0 mph 59% 0.00 in 552 W/m2
11:04 50.9 °F 36.6 °F 30.26 in SSW 2.0 mph 3.0 mph 58% 0.00 in 564 W/m2
11:10 51.0 °F 37.2 °F 30.26 in South 2.0 mph 3.0 mph 59% 0.00 in 520 W/m2
11:16 51.5 °F 35.9 °F 30.26 in SSW 3.0 mph 6.0 mph 55% 0.00 in 578 W/m2
11:22 52.1 °F 36.4 °F 30.25 in South 2.0 mph 4.0 mph 55% 0.00 in 582 W/m2
11:28 52.9 °F 37.2 °F 30.25 in SSW 2.0 mph 4.0 mph 55% 0.00 in 591 W/m2
11:34 52.7 °F 36.0 °F 30.25 in SSW 2.0 mph 3.0 mph 53% 0.00 in 598 W/m2
11:40 53.5 °F 36.3 °F 30.25 in SSW 2.0 mph 4.0 mph 52% 0.00 in 603 W/m2
11:46 53.8 °F 34.0 °F 30.25 in SSW 3.0 mph 4.0 mph 47% 0.00 in 610 W/m2
11:52 54.2 °F 34.4 °F 30.24 in SW 2.0 mph 3.0 mph 47% 0.00 in 613 W/m2
11:58 54.9 °F 35.0 °F 30.24 in SSE 2.0 mph 5.0 mph 47% 0.00 in 621 W/m2
12:04 55.0 °F 32.9 °F 30.23 in SW 3.0 mph 4.0 mph 43% 0.00 in 626 W/m2
12:10 55.2 °F 35.3 °F 30.23 in SSE 4.0 mph 4.0 mph 47% 0.00 in 629 W/m2
12:16 55.7 °F 32.3 °F 30.23 in SW 4.0 mph 7.0 mph 41% 0.00 in 633 W/m2
12:22 56.3 °F 32.3 °F 30.22 in West 3.0 mph 10.0 mph 40% 0.00 in 638 W/m2
12:28 55.8 °F 31.2 °F 30.22 in South 4.0 mph 10.0 mph 39% 0.00 in 534 W/m2
12:34 55.8 °F 32.4 °F 30.22 in SSW 4.0 mph 6.0 mph 41% 0.00 in 649 W/m2
12:40 56.6 °F 34.3 °F 30.22 in South 5.0 mph 5.0 mph 43% 0.00 in 640 W/m2
12:46 56.8 °F 32.7 °F 30.21 in South 4.0 mph 8.0 mph 40% 0.00 in 645 W/m2
12:52 57.2 °F 32.4 °F 30.20 in SSW 4.0 mph 7.0 mph 39% 0.00 in 650 W/m2
12:58 56.8 °F 32.1 °F 30.20 in SW 5.0 mph 7.0 mph 39% 0.00 in 638 W/m2
13:04 57.1 °F 31.7 °F 30.20 in WSW 5.0 mph 5.0 mph 38% 0.00 in 636 W/m2
13:10 57.1 °F 33.0 °F 30.19 in WSW 5.0 mph 5.0 mph 40% 0.00 in 635 W/m2
13:16 58.2 °F 33.3 °F 30.19 in SW 4.0 mph 8.0 mph 39% 0.00 in 633 W/m2
13:22 58.1 °F 33.2 °F 30.18 in SSW 5.0 mph 5.0 mph 39% 0.00 in 629 W/m2
13:28 58.1 °F 33.9 °F 30.18 in SSW 5.0 mph 6.0 mph 40% 0.00 in 626 W/m2
13:34 58.6 °F 34.3 °F 30.17 in SSW 4.0 mph 7.0 mph 40% 0.00 in 624 W/m2
13:40 58.4 °F 32.2 °F 30.17 in SSW 5.0 mph 5.0 mph 37% 0.00 in 619 W/m2
13:46 58.5 °F 34.2 °F 30.17 in SSW 5.0 mph 8.0 mph 40% 0.00 in 612 W/m2
13:52 59.3 °F 36.2 °F 30.17 in SSW 5.0 mph 5.0 mph 42% 0.00 in 606 W/m2
13:58 59.6 °F 36.5 °F 30.17 in WSW 4.0 mph 6.0 mph 42% 0.00 in 603 W/m2
14:06 60.5 °F 37.9 °F 30.16 in SSW 2.0 mph 4.0 mph 43% 0.00 in 592 W/m2
14:12 59.5 °F 36.4 °F 30.16 in SW 4.0 mph 4.0 mph 42% 0.00 in 582 W/m2
14:18 59.3 °F 35.6 °F 30.15 in SW 4.0 mph 4.0 mph 41% 0.00 in 575 W/m2
14:24 59.3 °F 36.8 °F 30.15 in SW 4.0 mph 5.0 mph 43% 0.00 in 568 W/m2
14:30 59.6 °F 36.5 °F 30.15 in WSW 4.0 mph 4.0 mph 42% 0.00 in 559 W/m2
14:36 60.0 °F 36.8 °F 30.14 in WSW 3.0 mph 5.0 mph 42% 0.00 in 550 W/m2
14:42 60.6 °F 39.1 °F 30.14 in West 3.0 mph 4.0 mph 45% 0.00 in 540 W/m2
14:48 60.7 °F 38.6 °F 30.14 in SSW 2.0 mph 6.0 mph 44% 0.00 in 531 W/m2
14:54 59.8 °F 36.6 °F 30.14 in West 5.0 mph 6.0 mph 42% 0.00 in 519 W/m2
15:00 59.9 °F 36.7 °F 30.14 in WSW 6.0 mph 6.0 mph 42% 0.00 in 504 W/m2
15:06 59.8 °F 37.2 °F 30.14 in SW 6.0 mph 12.0 mph 43% 0.00 in 490 W/m2
15:12 60.2 °F 37.6 °F 30.14 in SW 5.0 mph 9.0 mph 43% 0.00 in 476 W/m2
15:18 60.1 °F 38.1 °F 30.14 in SSW 5.0 mph 10.0 mph 44% 0.00 in 466 W/m2
15:24 60.6 °F 39.1 °F 30.14 in SSW 5.0 mph 6.0 mph 45% 0.00 in 454 W/m2
15:30 60.9 °F 38.2 °F 30.13 in SW 4.0 mph 7.0 mph 43% 0.00 in 439 W/m2
15:36 60.9 °F 38.8 °F 30.13 in SSW 4.0 mph 7.0 mph 44% 0.00 in 427 W/m2
15:42 60.7 °F 37.5 °F 30.13 in SW 4.0 mph 10.0 mph 42% 0.00 in 413 W/m2
15:48 61.3 °F 38.6 °F 30.13 in SW 4.0 mph 10.0 mph 43% 0.00 in 401 W/m2
15:54 61.2 °F 38.5 °F 30.13 in SW 3.0 mph 5.0 mph 43% 0.00 in 385 W/m2
16:00 61.1 °F 39.6 °F 30.13 in SSW 4.0 mph 4.0 mph 45% 0.00 in 371 W/m2
16:06 61.3 °F 40.3 °F 30.12 in SSW 3.0 mph 6.0 mph 46% 0.00 in 353 W/m2
16:12 61.4 °F 41.0 °F 30.12 in WSW 3.0 mph 3.0 mph 47% 0.00 in 338 W/m2
16:18 61.5 °F 40.5 °F 30.12 in WSW 3.0 mph 4.0 mph 46% 0.00 in 322 W/m2
16:24 61.0 °F 38.9 °F 30.12 in WSW 4.0 mph 8.0 mph 44% 0.00 in 306 W/m2
16:30 61.0 °F 38.9 °F 30.12 in WSW 4.0 mph 5.0 mph 44% 0.00 in 290 W/m2
16:36 60.9 °F 39.4 °F 30.12 in WSW 4.0 mph 6.0 mph 45% 0.00 in 272 W/m2
16:42 61.0 °F 39.5 °F 30.12 in SSE 4.0 mph 5.0 mph 45% 0.00 in 255 W/m2
16:48 60.9 °F 39.4 °F 30.11 in SW 4.0 mph 5.0 mph 45% 0.00 in 239 W/m2
16:54 60.8 °F 39.3 °F 30.11 in SSW 4.0 mph 7.0 mph 45% 0.00 in 221 W/m2
17:00 60.4 °F 39.5 °F 30.11 in SW 5.0 mph 5.0 mph 46% 0.00 in 206 W/m2
17:06 60.3 °F 38.9 °F 30.11 in SW 4.0 mph 5.0 mph 45% 0.00 in 32 W/m2
17:12 60.2 °F 39.3 °F 30.11 in SSW 4.0 mph 4.0 mph 46% 0.00 in 30 W/m2
17:18 60.2 °F 39.9 °F 30.11 in South 4.0 mph 5.0 mph 47% 0.00 in 26 W/m2
17:24 60.0 °F 39.7 °F 30.10 in SSW 3.0 mph 7.0 mph 47% 0.00 in 26 W/m2
17:30 60.0 °F 39.1 °F 30.10 in SW 4.0 mph 4.0 mph 46% 0.00 in 23 W/m2
17:36 59.9 °F 39.6 °F 30.09 in SW 3.0 mph 4.0 mph 47% 0.00 in 21 W/m2
17:42 59.7 °F 40.0 °F 30.09 in South 2.0 mph 4.0 mph 48% 0.00 in 19 W/m2
17:48 59.4 °F 39.7 °F 30.10 in SSW 2.0 mph 5.0 mph 48% 0.00 in 18 W/m2
17:54 59.2 °F 40.0 °F 30.09 in South 2.0 mph 2.0 mph 49% 0.00 in 14 W/m2
18:00 58.8 °F 39.7 °F 30.09 in South 2.0 mph 2.0 mph 49% 0.00 in 12 W/m2
18:06 58.5 °F 39.9 °F 30.09 in South 1.0 mph 3.0 mph 50% 0.00 in 9 W/m2
18:12 58.1 °F 40.1 °F 30.09 in SSE 1.0 mph 1.0 mph 51% 0.00 in 7 W/m2
18:18 57.4 °F 40.4 °F 30.09 in SSE 1.0 mph 1.0 mph 53% 0.00 in 0 W/m2
18:24 56.6 °F 41.1 °F 30.09 in Calm   2.0 mph 56% 0.00 in 0 W/m2
18:30 55.7 °F 40.2 °F 30.09 in SSE 1.0 mph 1.0 mph 56% 0.00 in 0 W/m2
18:36 55.2 °F 40.7 °F 30.09 in Calm   2.0 mph 58% 0.00 in 0 W/m2
18:42 54.6 °F 40.6 °F 30.09 in Calm   1.0 mph 59% 0.00 in 0 W/m2
18:48 54.0 °F 40.8 °F 30.09 in Calm   1.0 mph 61% 0.00 in 0 W/m2
18:54 53.3 °F 41.0 °F 30.09 in Calm     63% 0.00 in 0 W/m2
19:00 52.6 °F 40.4 °F 30.09 in Calm     63% 0.00 in 0 W/m2
19:06 52.2 °F 40.8 °F 30.09 in Calm     65% 0.00 in 0 W/m2
19:12 51.7 °F 40.7 °F 30.09 in Calm     66% 0.00 in 0 W/m2
19:18 51.5 °F 40.5 °F 30.10 in Calm     66% 0.00 in 0 W/m2
19:24 51.3 °F 40.3 °F 30.10 in Calm     66% 0.00 in 0 W/m2
19:30 51.2 °F 40.2 °F 30.10 in Calm   1.0 mph 66% 0.00 in 0 W/m2
19:36 51.7 °F 40.3 °F 30.10 in Calm   1.0 mph 65% 0.00 in 0 W/m2
19:42 51.9 °F 40.5 °F 30.10 in SSE 1.0 mph 2.0 mph 65% 0.00 in 0 W/m2
19:48 51.8 °F 40.0 °F 30.09 in SSE 1.0 mph 2.0 mph 64% 0.00 in 0 W/m2
19:54 51.7 °F 39.9 °F 30.09 in Calm   1.0 mph 64% 0.00 in 0 W/m2
20:00 52.0 °F 39.8 °F 30.10 in Calm     63% 0.00 in 0 W/m2
20:06 52.0 °F 39.8 °F 30.10 in Calm     63% 0.00 in 0 W/m2
20:12 51.6 °F 39.8 °F 30.10 in Calm     64% 0.00 in 0 W/m2
20:18 51.1 °F 40.1 °F 30.10 in Calm     66% 0.00 in 0 W/m2
20:24 50.9 °F 39.5 °F 30.10 in Calm   3.0 mph 65% 0.00 in 0 W/m2
20:30 51.1 °F 39.7 °F 30.10 in Calm     65% 0.00 in 0 W/m2
20:36 50.6 °F 40.4 °F 30.10 in Calm     68% 0.00 in 0 W/m2
20:42 49.6 °F 40.6 °F 30.10 in Calm     71% 0.00 in 0 W/m2
20:48 48.8 °F 40.9 °F 30.10 in Calm     74% 0.00 in 0 W/m2
20:54 48.4 °F 40.8 °F 30.11 in Calm     75% 0.00 in 0 W/m2
21:00 47.9 °F 40.7 °F 30.11 in Calm     76% 0.00 in 0 W/m2
21:06 47.6 °F 41.1 °F 30.11 in Calm     78% 0.00 in 0 W/m2
21:12 47.4 °F 41.2 °F 30.12 in Calm     79% 0.00 in 0 W/m2
21:18 47.1 °F 41.2 °F 30.12 in Calm     80% 0.00 in 0 W/m2
21:24 46.9 °F 41.7 °F 30.12 in Calm     82% 0.00 in 0 W/m2
21:30 46.8 °F 41.9 °F 30.12 in Calm     83% 0.00 in 0 W/m2
21:36 46.5 °F 41.6 °F 30.12 in Calm     83% 0.00 in 0 W/m2
21:42 46.1 °F 41.2 °F 30.13 in Calm     83% 0.00 in 0 W/m2
21:48 45.8 °F 40.9 °F 30.13 in Calm     83% 0.00 in 0 W/m2
21:54 45.5 °F 40.9 °F 30.13 in Calm     84% 0.00 in 0 W/m2
22:02 45.1 °F 40.6 °F 30.13 in Calm     84% 0.00 in 0 W/m2
22:08 45.4 °F 40.8 °F 30.13 in Calm   1.0 mph 84% 0.00 in 0 W/m2
22:14 46.6 °F 40.8 °F 30.13 in Calm   1.0 mph 80% 0.00 in 0 W/m2
22:20 47.3 °F 40.8 °F 30.13 in Calm     78% 0.00 in 0 W/m2
22:26 48.0 °F 40.5 °F 30.13 in Calm     75% 0.00 in 0 W/m2
22:32 49.4 °F 40.4 °F 30.14 in SSE 1.0 mph 1.0 mph 71% 0.00 in 0 W/m2
22:38 50.3 °F 40.1 °F 30.14 in Calm   1.0 mph 68% 0.00 in 0 W/m2
22:44 51.3 °F 40.3 °F 30.14 in SW 1.0 mph 2.0 mph 66% 0.00 in 0 W/m2
22:50 52.3 °F 40.1 °F 30.14 in SSW 2.0 mph 2.0 mph 63% 0.00 in 0 W/m2
22:56 53.4 °F 40.3 °F 30.13 in SW 3.0 mph 5.0 mph 61% 0.00 in 0 W/m2
23:02 54.1 °F 40.1 °F 30.13 in SW 4.0 mph 4.0 mph 59% 0.00 in 0 W/m2
23:08 54.2 °F 39.7 °F 30.13 in SW 3.0 mph 4.0 mph 58% 0.00 in 0 W/m2
23:24 54.7 °F 39.8 °F 30.14 in SW 3.0 mph 4.0 mph 57% 0.00 in 0 W/m2
23:30 54.8 °F 39.4 °F 30.14 in SW 3.0 mph 3.0 mph 56% 0.00 in 0 W/m2
23:36 54.7 °F 39.8 °F 30.14 in SSW 3.0 mph 5.0 mph 57% 0.00 in 0 W/m2
23:40 54.7 °F 39.3 °F 30.14 in SW 3.0 mph 3.0 mph 56% 0.00 in 0 W/m2
23:46 54.7 °F 39.8 °F 30.14 in SW 3.0 mph 8.0 mph 57% 0.00 in 0 W/m2
23:50 54.6 °F 39.7 °F 30.14 in SW 2.0 mph 4.0 mph 57% 0.00 in 0 W/m2
23:56 54.6 °F 39.7 °F 30.14 in SW 2.0 mph 4.0 mph 57% 0.00 in 0 W/m2
23:58 54.6 °F 39.7 °F 30.14 in SW 2.0 mph 4.0 mph 57% 0.00 in 0 W/m2
Country Meadow, Clay, NY, USA
Compliments of Weather Underground - 2 mb